EPSC/SZZ METAR and TAF weather

Enter ICAO airport designator
Station Type Date Time Source
EPSC METAR 2019/12/08 14:00 UTC NOAA

EPSC 081400Z 20010KT 160V230 9999 -RA FEW009 BKN019 08/06 Q0996


Station Type Date Time Source
EPSC Decoded METAR 2019/12/08 14:00 UTC NOAA

Szczecin, Poland (EPSC) 53-24N 014-37E 3M
Dec 08, 2019 - 09:00 AM EST / 2019.12.08 1400 UTC
Wind: from the SSW (200 degrees) at 12 MPH (10 KT) (direction variable):0
Visibility: greater than 7 mile(s):0
Sky conditions: mostly cloudy
Weather: light rain
Temperature: 46 F (8 C)
Dew Point: 42 F (6 C)
Relative Humidity: 87%
Pressure (altimeter): 29.41 in. Hg (0996 hPa)
ob: EPSC 081400Z 20010KT 160V230 9999 -RA FEW009 BKN019 08/06 Q0996
cycle: 14

Station Type Date Time Source
EPSC TAF 2019/12/08 12:33 UTC NOAA

TAF EPSC 081130Z 0812/0912 20015KT 9999 BKN020
TEMPO 0812/0822 22018G32KT SHRA BKN008 BKN014CB
BECMG 0822/0824 19005KT PROB40
TEMPO 0903/0912 -SHRA BKN005 BKN012TCU

Example: see airport list